sensor_id;sensor_type;location;lat;lon;timestamp;P1;durP1;ratioP1;P2;durP2;ratioP2
26050;SDS011;13825;53.496;10.020;2023-04-07T00:00:32;10.97;;;6.90;;
26050;SDS011;13825;53.496;10.020;2023-04-07T00:02:59;10.53;;;6.30;;
26050;SDS011;13825;53.496;10.020;2023-04-07T00:05:30;12.43;;;7.73;;
26050;SDS011;13825;53.496;10.020;2023-04-07T00:07:58;10.77;;;7.03;;
26050;SDS011;13825;53.496;10.020;2023-04-07T00:10:26;14.57;;;7.37;;
26050;SDS011;13825;53.496;10.020;2023-04-07T00:12:54;10.57;;;6.57;;
26050;SDS011;13825;53.496;10.020;2023-04-07T00:15:21;11.27;;;7.40;;
26050;SDS011;13825;53.496;10.020;2023-04-07T00:17:48;10.23;;;6.43;;
26050;SDS011;13825;53.496;10.020;2023-04-07T00:20:16;12.07;;;6.87;;
26050;SDS011;13825;53.496;10.020;2023-04-07T00:22:43;14.57;;;6.70;;
26050;SDS011;13825;53.496;10.020;2023-04-07T00:25:10;10.63;;;7.50;;
26050;SDS011;13825;53.496;10.020;2023-04-07T00:27:39;10.40;;;7.00;;
26050;SDS011;13825;53.496;10.020;2023-04-07T00:30:07;10.37;;;7.10;;
26050;SDS011;13825;53.496;10.020;2023-04-07T00:32:34;11.03;;;6.67;;
26050;SDS011;13825;53.496;10.020;2023-04-07T00:35:01;10.40;;;7.53;;
26050;SDS011;13825;53.496;10.020;2023-04-07T00:37:29;9.20;;;6.53;;
26050;SDS011;13825;53.496;10.020;2023-04-07T00:39:56;11.00;;;7.43;;
26050;SDS011;13825;53.496;10.020;2023-04-07T00:42:23;10.30;;;7.00;;
26050;SDS011;13825;53.496;10.020;2023-04-07T00:44:52;10.83;;;7.07;;
26050;SDS011;13825;53.496;10.020;2023-04-07T00:47:19;10.40;;;6.83;;
26050;SDS011;13825;53.496;10.020;2023-04-07T00:49:46;10.60;;;7.20;;
26050;SDS011;13825;53.496;10.020;2023-04-07T00:52:14;12.30;;;6.83;;
26050;SDS011;13825;53.496;10.020;2023-04-07T00:54:41;10.57;;;6.60;;
26050;SDS011;13825;53.496;10.020;2023-04-07T00:57:08;9.97;;;6.77;;
26050;SDS011;13825;53.496;10.020;2023-04-07T00:59:36;10.00;;;7.00;;
26050;SDS011;13825;53.496;10.020;2023-04-07T01:02:06;11.90;;;6.87;;
26050;SDS011;13825;53.496;10.020;2023-04-07T01:04:38;8.80;;;6.57;;
26050;SDS011;13825;53.496;10.020;2023-04-07T01:07:08;11.23;;;7.23;;
26050;SDS011;13825;53.496;10.020;2023-04-07T01:09:39;10.30;;;6.80;;
26050;SDS011;13825;53.496;10.020;2023-04-07T01:12:09;9.23;;;6.80;;
26050;SDS011;13825;53.496;10.020;2023-04-07T01:14:39;10.27;;;6.97;;
26050;SDS011;13825;53.496;10.020;2023-04-07T01:17:11;8.80;;;6.80;;
26050;SDS011;13825;53.496;10.020;2023-04-07T01:19:39;10.80;;;6.70;;
26050;SDS011;13825;53.496;10.020;2023-04-07T01:22:09;10.67;;;6.77;;
26050;SDS011;13825;53.496;10.020;2023-04-07T01:24:41;11.60;;;7.13;;
26050;SDS011;13825;53.496;10.020;2023-04-07T01:27:14;12.03;;;6.63;;
26050;SDS011;13825;53.496;10.020;2023-04-07T01:29:47;8.50;;;6.33;;
26050;SDS011;13825;53.496;10.020;2023-04-07T01:32:15;8.17;;;5.90;;
26050;SDS011;13825;53.496;10.020;2023-04-07T01:34:44;9.93;;;6.50;;
26050;SDS011;13825;53.496;10.020;2023-04-07T01:37:14;10.67;;;6.13;;
26050;SDS011;13825;53.496;10.020;2023-04-07T01:39:41;7.57;;;6.33;;
26050;SDS011;13825;53.496;10.020;2023-04-07T01:42:09;9.93;;;6.53;;
26050;SDS011;13825;53.496;10.020;2023-04-07T01:44:36;10.37;;;6.57;;
26050;SDS011;13825;53.496;10.020;2023-04-07T01:47:06;9.97;;;6.47;;
26050;SDS011;13825;53.496;10.020;2023-04-07T01:49:34;11.33;;;6.90;;
26050;SDS011;13825;53.496;10.020;2023-04-07T01:52:02;9.77;;;6.60;;
26050;SDS011;13825;53.496;10.020;2023-04-07T01:54:30;10.57;;;6.30;;
26050;SDS011;13825;53.496;10.020;2023-04-07T01:56:58;9.67;;;6.60;;
26050;SDS011;13825;53.496;10.020;2023-04-07T01:59:25;7.93;;;6.10;;
26050;SDS011;13825;53.496;10.020;2023-04-07T02:01:52;10.80;;;6.73;;
26050;SDS011;13825;53.496;10.020;2023-04-07T02:04:23;12.43;;;6.67;;
26050;SDS011;13825;53.496;10.020;2023-04-07T02:06:52;11.43;;;7.13;;
26050;SDS011;13825;53.496;10.020;2023-04-07T02:09:20;9.07;;;6.43;;
26050;SDS011;13825;53.496;10.020;2023-04-07T02:11:48;9.13;;;6.67;;
26050;SDS011;13825;53.496;10.020;2023-04-07T02:14:16;9.40;;;6.70;;
26050;SDS011;13825;53.496;10.020;2023-04-07T02:16:46;10.20;;;6.20;;
26050;SDS011;13825;53.496;10.020;2023-04-07T02:19:18;9.10;;;6.27;;
26050;SDS011;13825;53.496;10.020;2023-04-07T02:21:47;8.67;;;5.77;;
26050;SDS011;13825;53.496;10.020;2023-04-07T02:24:17;9.47;;;5.83;;
26050;SDS011;13825;53.496;10.020;2023-04-07T02:26:45;7.63;;;6.13;;
26050;SDS011;13825;53.496;10.020;2023-04-07T02:29:13;12.27;;;7.00;;
26050;SDS011;13825;53.496;10.020;2023-04-07T02:31:40;8.13;;;5.90;;
26050;SDS011;13825;53.496;10.020;2023-04-07T02:34:07;9.60;;;6.20;;
26050;SDS011;13825;53.496;10.020;2023-04-07T02:36:35;7.90;;;5.50;;
26050;SDS011;13825;53.496;10.020;2023-04-07T02:39:03;10.50;;;6.07;;
26050;SDS011;13825;53.496;10.020;2023-04-07T02:41:31;9.33;;;6.27;;
26050;SDS011;13825;53.496;10.020;2023-04-07T02:43:58;8.40;;;6.00;;
26050;SDS011;13825;53.496;10.020;2023-04-07T02:46:26;9.80;;;6.60;;
26050;SDS011;13825;53.496;10.020;2023-04-07T02:48:53;9.60;;;6.33;;
26050;SDS011;13825;53.496;10.020;2023-04-07T02:51:20;10.57;;;6.20;;
26050;SDS011;13825;53.496;10.020;2023-04-07T02:53:47;10.30;;;5.67;;
26050;SDS011;13825;53.496;10.020;2023-04-07T02:56:16;6.63;;;5.00;;
26050;SDS011;13825;53.496;10.020;2023-04-07T02:58:43;10.70;;;5.80;;
26050;SDS011;13825;53.496;10.020;2023-04-07T03:01:11;9.03;;;6.23;;
26050;SDS011;13825;53.496;10.020;2023-04-07T03:03:38;6.53;;;5.23;;
26050;SDS011;13825;53.496;10.020;2023-04-07T03:06:06;10.07;;;5.83;;
26050;SDS011;13825;53.496;10.020;2023-04-07T03:08:33;9.93;;;5.60;;
26050;SDS011;13825;53.496;10.020;2023-04-07T03:11:00;9.10;;;6.53;;
26050;SDS011;13825;53.496;10.020;2023-04-07T03:13:28;8.17;;;5.80;;
26050;SDS011;13825;53.496;10.020;2023-04-07T03:15:56;8.43;;;5.70;;
26050;SDS011;13825;53.496;10.020;2023-04-07T03:18:23;8.60;;;5.77;;
26050;SDS011;13825;53.496;10.020;2023-04-07T03:20:50;9.53;;;6.13;;
26050;SDS011;13825;53.496;10.020;2023-04-07T03:23:19;9.10;;;6.20;;
26050;SDS011;13825;53.496;10.020;2023-04-07T03:25:47;10.10;;;6.00;;
26050;SDS011;13825;53.496;10.020;2023-04-07T03:28:14;9.53;;;5.53;;
26050;SDS011;13825;53.496;10.020;2023-04-07T03:30:43;10.30;;;5.60;;
26050;SDS011;13825;53.496;10.020;2023-04-07T03:33:10;9.77;;;5.63;;
26050;SDS011;13825;53.496;10.020;2023-04-07T03:35:37;7.67;;;5.77;;
26050;SDS011;13825;53.496;10.020;2023-04-07T03:38:04;6.43;;;4.80;;
26050;SDS011;13825;53.496;10.020;2023-04-07T03:40:31;7.30;;;5.47;;
26050;SDS011;13825;53.496;10.020;2023-04-07T03:42:59;8.63;;;5.37;;
26050;SDS011;13825;53.496;10.020;2023-04-07T03:45:26;8.50;;;5.57;;
26050;SDS011;13825;53.496;10.020;2023-04-07T03:47:55;7.60;;;5.27;;
26050;SDS011;13825;53.496;10.020;2023-04-07T03:50:22;7.53;;;5.13;;
26050;SDS011;13825;53.496;10.020;2023-04-07T03:52:49;8.60;;;5.60;;
26050;SDS011;13825;53.496;10.020;2023-04-07T03:55:16;11.23;;;5.50;;
26050;SDS011;13825;53.496;10.020;2023-04-07T03:57:43;7.37;;;5.23;;
26050;SDS011;13825;53.496;10.020;2023-04-07T04:00:11;8.17;;;5.20;;
26050;SDS011;13825;53.496;10.020;2023-04-07T04:02:39;6.97;;;5.00;;
26050;SDS011;13825;53.496;10.020;2023-04-07T04:05:07;7.03;;;4.83;;
26050;SDS011;13825;53.496;10.020;2023-04-07T04:07:34;8.53;;;5.27;;
26050;SDS011;13825;53.496;10.020;2023-04-07T04:10:03;6.30;;;4.97;;
26050;SDS011;13825;53.496;10.020;2023-04-07T04:12:30;6.67;;;5.37;;
26050;SDS011;13825;53.496;10.020;2023-04-07T04:14:58;7.57;;;4.87;;
26050;SDS011;13825;53.496;10.020;2023-04-07T04:17:25;8.27;;;4.50;;
26050;SDS011;13825;53.496;10.020;2023-04-07T04:19:52;6.87;;;5.13;;
26050;SDS011;13825;53.496;10.020;2023-04-07T04:22:21;6.83;;;4.90;;
26050;SDS011;13825;53.496;10.020;2023-04-07T04:24:48;7.93;;;4.93;;
26050;SDS011;13825;53.496;10.020;2023-04-07T04:27:15;7.37;;;4.57;;
26050;SDS011;13825;53.496;10.020;2023-04-07T04:29:42;10.33;;;5.13;;
26050;SDS011;13825;53.496;10.020;2023-04-07T04:32:08;7.03;;;4.80;;
26050;SDS011;13825;53.496;10.020;2023-04-07T04:34:35;5.97;;;4.70;;
26050;SDS011;13825;53.496;10.020;2023-04-07T04:37:02;9.13;;;5.37;;
26050;SDS011;13825;53.496;10.020;2023-04-07T04:39:31;10.17;;;5.20;;
26050;SDS011;13825;53.496;10.020;2023-04-07T04:41:58;7.20;;;4.97;;
26050;SDS011;13825;53.496;10.020;2023-04-07T04:44:26;8.10;;;5.67;;
26050;SDS011;13825;53.496;10.020;2023-04-07T04:46:54;12.13;;;5.43;;
26050;SDS011;13825;53.496;10.020;2023-04-07T04:49:21;6.97;;;4.63;;
26050;SDS011;13825;53.496;10.020;2023-04-07T04:51:50;6.70;;;4.87;;
26050;SDS011;13825;53.496;10.020;2023-04-07T04:54:18;7.57;;;5.03;;
26050;SDS011;13825;53.496;10.020;2023-04-07T04:56:46;9.37;;;5.50;;
26050;SDS011;13825;53.496;10.020;2023-04-07T04:59:13;9.57;;;5.20;;
26050;SDS011;13825;53.496;10.020;2023-04-07T05:01:40;7.83;;;4.90;;
26050;SDS011;13825;53.496;10.020;2023-04-07T05:04:07;8.43;;;5.20;;
26050;SDS011;13825;53.496;10.020;2023-04-07T05:06:34;6.67;;;4.93;;
26050;SDS011;13825;53.496;10.020;2023-04-07T05:09:01;8.87;;;5.33;;
26050;SDS011;13825;53.496;10.020;2023-04-07T05:11:28;7.60;;;5.20;;
26050;SDS011;13825;53.496;10.020;2023-04-07T05:13:57;11.07;;;5.37;;
26050;SDS011;13825;53.496;10.020;2023-04-07T05:16:25;8.67;;;5.73;;
26050;SDS011;13825;53.496;10.020;2023-04-07T05:18:52;8.53;;;5.27;;
26050;SDS011;13825;53.496;10.020;2023-04-07T05:21:19;9.23;;;5.20;;
26050;SDS011;13825;53.496;10.020;2023-04-07T05:23:46;7.30;;;5.10;;
26050;SDS011;13825;53.496;10.020;2023-04-07T05:26:13;9.50;;;6.37;;
26050;SDS011;13825;53.496;10.020;2023-04-07T05:28:40;7.80;;;4.70;;
26050;SDS011;13825;53.496;10.020;2023-04-07T05:31:08;8.60;;;5.17;;
26050;SDS011;13825;53.496;10.020;2023-04-07T05:33:35;7.30;;;5.13;;
26050;SDS011;13825;53.496;10.020;2023-04-07T05:36:02;8.30;;;5.73;;
26050;SDS011;13825;53.496;10.020;2023-04-07T05:38:30;6.50;;;4.97;;
26050;SDS011;13825;53.496;10.020;2023-04-07T05:41:00;10.33;;;5.53;;
26050;SDS011;13825;53.496;10.020;2023-04-07T05:43:27;6.53;;;5.07;;
26050;SDS011;13825;53.496;10.020;2023-04-07T05:45:54;6.20;;;4.80;;
26050;SDS011;13825;53.496;10.020;2023-04-07T05:48:22;7.43;;;4.97;;
26050;SDS011;13825;53.496;10.020;2023-04-07T05:50:50;7.03;;;4.90;;
26050;SDS011;13825;53.496;10.020;2023-04-07T05:53:17;6.73;;;4.67;;
26050;SDS011;13825;53.496;10.020;2023-04-07T05:55:44;7.47;;;4.60;;
26050;SDS011;13825;53.496;10.020;2023-04-07T05:58:11;8.67;;;5.17;;
26050;SDS011;13825;53.496;10.020;2023-04-07T06:00:38;8.33;;;4.60;;
26050;SDS011;13825;53.496;10.020;2023-04-07T06:03:06;7.80;;;4.90;;
26050;SDS011;13825;53.496;10.020;2023-04-07T06:05:34;8.00;;;5.20;;
26050;SDS011;13825;53.496;10.020;2023-04-07T06:08:01;8.67;;;4.77;;
26050;SDS011;13825;53.496;10.020;2023-04-07T06:10:28;9.07;;;4.77;;
26050;SDS011;13825;53.496;10.020;2023-04-07T06:12:55;9.13;;;5.17;;
26050;SDS011;13825;53.496;10.020;2023-04-07T06:15:23;8.07;;;4.87;;
26050;SDS011;13825;53.496;10.020;2023-04-07T06:17:50;7.20;;;4.13;;
26050;SDS011;13825;53.496;10.020;2023-04-07T06:20:17;8.90;;;4.77;;
26050;SDS011;13825;53.496;10.020;2023-04-07T06:22:47;7.90;;;4.97;;
26050;SDS011;13825;53.496;10.020;2023-04-07T06:25:14;10.90;;;4.93;;
26050;SDS011;13825;53.496;10.020;2023-04-07T06:27:41;6.90;;;4.73;;
26050;SDS011;13825;53.496;10.020;2023-04-07T06:30:08;8.43;;;4.97;;
26050;SDS011;13825;53.496;10.020;2023-04-07T06:32:36;7.00;;;5.00;;
26050;SDS011;13825;53.496;10.020;2023-04-07T06:35:03;7.20;;;5.13;;
26050;SDS011;13825;53.496;10.020;2023-04-07T06:37:30;9.60;;;4.83;;
26050;SDS011;13825;53.496;10.020;2023-04-07T06:39:59;6.83;;;4.73;;
26050;SDS011;13825;53.496;10.020;2023-04-07T06:42:26;9.53;;;4.90;;
26050;SDS011;13825;53.496;10.020;2023-04-07T06:44:55;6.33;;;4.40;;
26050;SDS011;13825;53.496;10.020;2023-04-07T06:47:22;7.63;;;4.97;;
26050;SDS011;13825;53.496;10.020;2023-04-07T06:49:49;7.90;;;5.10;;
26050;SDS011;13825;53.496;10.020;2023-04-07T06:52:16;7.37;;;5.30;;
26050;SDS011;13825;53.496;10.020;2023-04-07T06:54:43;7.47;;;4.60;;
26050;SDS011;13825;53.496;10.020;2023-04-07T06:57:12;8.37;;;5.07;;
26050;SDS011;13825;53.496;10.020;2023-04-07T06:59:39;7.10;;;4.83;;
26050;SDS011;13825;53.496;10.020;2023-04-07T07:02:06;7.67;;;4.83;;
26050;SDS011;13825;53.496;10.020;2023-04-07T07:04:33;8.83;;;4.60;;
26050;SDS011;13825;53.496;10.020;2023-04-07T07:07:00;8.87;;;4.80;;
26050;SDS011;13825;53.496;10.020;2023-04-07T07:09:27;7.17;;;4.70;;
26050;SDS011;13825;53.496;10.020;2023-04-07T07:11:56;6.87;;;4.60;;
26050;SDS011;13825;53.496;10.020;2023-04-07T07:14:24;5.10;;;4.50;;
26050;SDS011;13825;53.496;10.020;2023-04-07T07:16:52;5.30;;;4.23;;
26050;SDS011;13825;53.496;10.020;2023-04-07T07:19:19;5.73;;;4.53;;
26050;SDS011;13825;53.496;10.020;2023-04-07T07:21:46;7.20;;;4.90;;
26050;SDS011;13825;53.496;10.020;2023-04-07T07:24:13;5.60;;;4.07;;
26050;SDS011;13825;53.496;10.020;2023-04-07T07:26:40;8.70;;;4.63;;
26050;SDS011;13825;53.496;10.020;2023-04-07T07:29:07;7.53;;;5.10;;
26050;SDS011;13825;53.496;10.020;2023-04-07T07:31:35;6.07;;;4.47;;
26050;SDS011;13825;53.496;10.020;2023-04-07T07:34:03;6.20;;;4.23;;
26050;SDS011;13825;53.496;10.020;2023-04-07T07:36:30;7.67;;;4.63;;
26050;SDS011;13825;53.496;10.020;2023-04-07T07:38:57;6.47;;;4.67;;
26050;SDS011;13825;53.496;10.020;2023-04-07T07:41:24;7.13;;;4.63;;
26050;SDS011;13825;53.496;10.020;2023-04-07T07:43:51;7.03;;;4.33;;
26050;SDS011;13825;53.496;10.020;2023-04-07T07:46:18;7.43;;;4.83;;
26050;SDS011;13825;53.496;10.020;2023-04-07T07:48:47;8.67;;;4.50;;
26050;SDS011;13825;53.496;10.020;2023-04-07T07:51:14;8.60;;;4.70;;
26050;SDS011;13825;53.496;10.020;2023-04-07T07:53:42;6.17;;;4.50;;
26050;SDS011;13825;53.496;10.020;2023-04-07T07:56:09;6.13;;;4.53;;
26050;SDS011;13825;53.496;10.020;2023-04-07T07:58:36;6.43;;;4.23;;
26050;SDS011;13825;53.496;10.020;2023-04-07T08:01:04;4.70;;;4.17;;
26050;SDS011;13825;53.496;10.020;2023-04-07T08:03:31;5.57;;;4.20;;
26050;SDS011;13825;53.496;10.020;2023-04-07T08:06:03;5.90;;;4.40;;
26050;SDS011;13825;53.496;10.020;2023-04-07T08:08:31;7.30;;;4.30;;
26050;SDS011;13825;53.496;10.020;2023-04-07T08:10:58;5.37;;;4.47;;
26050;SDS011;13825;53.496;10.020;2023-04-07T08:13:26;7.00;;;4.17;;
26050;SDS011;13825;53.496;10.020;2023-04-07T08:15:53;7.10;;;4.40;;
26050;SDS011;13825;53.496;10.020;2023-04-07T08:18:21;7.47;;;4.67;;
26050;SDS011;13825;53.496;10.020;2023-04-07T08:20:49;6.87;;;4.70;;
26050;SDS011;13825;53.496;10.020;2023-04-07T08:23:18;6.97;;;4.40;;
26050;SDS011;13825;53.496;10.020;2023-04-07T08:25:45;8.43;;;4.07;;
26050;SDS011;13825;53.496;10.020;2023-04-07T08:28:13;7.47;;;4.70;;
26050;SDS011;13825;53.496;10.020;2023-04-07T08:30:40;6.10;;;3.77;;
26050;SDS011;13825;53.496;10.020;2023-04-07T08:33:07;6.93;;;4.23;;
26050;SDS011;13825;53.496;10.020;2023-04-07T08:35:35;5.87;;;4.00;;
26050;SDS011;13825;53.496;10.020;2023-04-07T08:38:02;6.03;;;4.53;;
26050;SDS011;13825;53.496;10.020;2023-04-07T08:40:33;7.03;;;4.63;;
26050;SDS011;13825;53.496;10.020;2023-04-07T08:43:01;6.37;;;4.30;;
26050;SDS011;13825;53.496;10.020;2023-04-07T08:45:32;7.27;;;4.30;;
26050;SDS011;13825;53.496;10.020;2023-04-07T08:47:59;6.30;;;3.93;;
26050;SDS011;13825;53.496;10.020;2023-04-07T08:50:30;5.80;;;4.50;;
26050;SDS011;13825;53.496;10.020;2023-04-07T08:52:59;5.50;;;3.87;;
26050;SDS011;13825;53.496;10.020;2023-04-07T08:55:26;5.80;;;4.17;;
26050;SDS011;13825;53.496;10.020;2023-04-07T08:58:10;6.23;;;4.23;;
26050;SDS011;13825;53.496;10.020;2023-04-07T09:00:45;6.40;;;4.40;;
26050;SDS011;13825;53.496;10.020;2023-04-07T09:03:13;7.87;;;4.70;;
26050;SDS011;13825;53.496;10.020;2023-04-07T09:05:42;6.93;;;4.33;;
26050;SDS011;13825;53.496;10.020;2023-04-07T09:08:10;6.67;;;4.47;;
26050;SDS011;13825;53.496;10.020;2023-04-07T09:10:38;6.10;;;4.10;;
26050;SDS011;13825;53.496;10.020;2023-04-07T09:13:08;6.10;;;4.03;;
26050;SDS011;13825;53.496;10.020;2023-04-07T09:15:36;5.60;;;4.20;;
26050;SDS011;13825;53.496;10.020;2023-04-07T09:18:05;7.00;;;4.57;;
26050;SDS011;13825;53.496;10.020;2023-04-07T09:23:27;4.53;;;4.00;;
26050;SDS011;13825;53.496;10.020;2023-04-07T09:25:58;5.17;;;4.07;;
26050;SDS011;13825;53.496;10.020;2023-04-07T09:28:45;6.43;;;4.27;;
26050;SDS011;13825;53.496;10.020;2023-04-07T09:31:14;7.13;;;4.07;;
26050;SDS011;13825;53.496;10.020;2023-04-07T09:33:43;7.67;;;5.17;;
26050;SDS011;13825;53.496;10.020;2023-04-07T09:36:12;5.50;;;4.10;;
26050;SDS011;13825;53.496;10.020;2023-04-07T09:38:39;7.37;;;4.17;;
26050;SDS011;13825;53.496;10.020;2023-04-07T09:41:13;6.17;;;4.20;;
26050;SDS011;13825;53.496;10.020;2023-04-07T09:43:42;7.70;;;4.00;;
26050;SDS011;13825;53.496;10.020;2023-04-07T09:46:11;8.17;;;4.27;;
26050;SDS011;13825;53.496;10.020;2023-04-07T09:48:44;5.43;;;3.70;;
26050;SDS011;13825;53.496;10.020;2023-04-07T09:51:12;7.53;;;4.43;;
26050;SDS011;13825;53.496;10.020;2023-04-07T09:53:40;8.07;;;4.53;;
26050;SDS011;13825;53.496;10.020;2023-04-07T09:56:07;6.37;;;3.97;;
26050;SDS011;13825;53.496;10.020;2023-04-07T09:58:36;6.83;;;4.13;;
26050;SDS011;13825;53.496;10.020;2023-04-07T10:01:04;6.20;;;3.97;;
26050;SDS011;13825;53.496;10.020;2023-04-07T10:03:32;5.77;;;4.50;;
26050;SDS011;13825;53.496;10.020;2023-04-07T10:06:01;5.80;;;4.57;;
26050;SDS011;13825;53.496;10.020;2023-04-07T10:08:29;6.10;;;4.50;;
26050;SDS011;13825;53.496;10.020;2023-04-07T10:10:57;6.07;;;3.80;;
26050;SDS011;13825;53.496;10.020;2023-04-07T10:13:25;9.07;;;4.73;;
26050;SDS011;13825;53.496;10.020;2023-04-07T10:15:53;6.53;;;4.00;;
26050;SDS011;13825;53.496;10.020;2023-04-07T10:18:24;7.50;;;4.00;;
26050;SDS011;13825;53.496;10.020;2023-04-07T10:20:52;7.87;;;4.07;;
26050;SDS011;13825;53.496;10.020;2023-04-07T10:23:21;7.10;;;4.17;;
26050;SDS011;13825;53.496;10.020;2023-04-07T10:25:51;5.80;;;4.27;;
26050;SDS011;13825;53.496;10.020;2023-04-07T10:28:20;5.40;;;3.90;;
26050;SDS011;13825;53.496;10.020;2023-04-07T10:30:49;5.97;;;4.40;;
26050;SDS011;13825;53.496;10.020;2023-04-07T10:33:17;6.27;;;4.20;;
26050;SDS011;13825;53.496;10.020;2023-04-07T10:38:28;5.03;;;3.60;;
26050;SDS011;13825;53.496;10.020;2023-04-07T10:40:55;5.05;;;3.90;;
26050;SDS011;13825;53.496;10.020;2023-04-07T10:43:35;4.73;;;3.50;;
26050;SDS011;13825;53.496;10.020;2023-04-07T10:46:04;5.90;;;3.73;;
26050;SDS011;13825;53.496;10.020;2023-04-07T10:48:32;6.37;;;3.87;;
26050;SDS011;13825;53.496;10.020;2023-04-07T11:02:38;6.57;;;3.63;;
26050;SDS011;13825;53.496;10.020;2023-04-07T11:05:06;4.87;;;3.47;;
26050;SDS011;13825;53.496;10.020;2023-04-07T11:07:47;4.57;;;3.33;;
26050;SDS011;13825;53.496;10.020;2023-04-07T11:10:15;4.80;;;3.30;;
26050;SDS011;13825;53.496;10.020;2023-04-07T11:12:43;5.53;;;3.60;;
26050;SDS011;13825;53.496;10.020;2023-04-07T11:15:21;6.97;;;4.20;;
26050;SDS011;13825;53.496;10.020;2023-04-07T11:20:39;6.37;;;4.03;;
26050;SDS011;13825;53.496;10.020;2023-04-07T11:23:06;5.10;;;3.97;;
26050;SDS011;13825;53.496;10.020;2023-04-07T11:25:34;6.87;;;4.27;;
26050;SDS011;13825;53.496;10.020;2023-04-07T11:28:02;6.07;;;4.10;;
26050;SDS011;13825;53.496;10.020;2023-04-07T11:30:31;4.27;;;3.40;;
26050;SDS011;13825;53.496;10.020;2023-04-07T11:32:58;4.13;;;3.13;;
26050;SDS011;13825;53.496;10.020;2023-04-07T11:35:26;6.90;;;3.50;;
26050;SDS011;13825;53.496;10.020;2023-04-07T11:37:56;4.40;;;3.27;;
26050;SDS011;13825;53.496;10.020;2023-04-07T11:40:33;5.20;;;4.00;;
26050;SDS011;13825;53.496;10.020;2023-04-07T11:43:01;3.40;;;3.03;;
26050;SDS011;13825;53.496;10.020;2023-04-07T11:45:28;5.63;;;4.50;;
26050;SDS011;13825;53.496;10.020;2023-04-07T11:47:57;4.17;;;3.20;;
26050;SDS011;13825;53.496;10.020;2023-04-07T11:50:40;7.60;;;4.83;;
26050;SDS011;13825;53.496;10.020;2023-04-07T11:53:07;11.87;;;7.90;;
26050;SDS011;13825;53.496;10.020;2023-04-07T11:55:35;7.07;;;4.17;;
26050;SDS011;13825;53.496;10.020;2023-04-07T11:58:06;5.43;;;3.60;;
26050;SDS011;13825;53.496;10.020;2023-04-07T12:00:34;6.57;;;4.93;;
26050;SDS011;13825;53.496;10.020;2023-04-07T12:03:10;6.27;;;4.50;;
26050;SDS011;13825;53.496;10.020;2023-04-07T12:05:42;4.57;;;3.90;;
26050;SDS011;13825;53.496;10.020;2023-04-07T12:08:10;4.93;;;3.67;;
26050;SDS011;13825;53.496;10.020;2023-04-07T12:10:37;5.80;;;4.40;;
26050;SDS011;13825;53.496;10.020;2023-04-07T12:13:05;7.43;;;4.70;;
26050;SDS011;13825;53.496;10.020;2023-04-07T12:15:33;7.53;;;4.50;;
26050;SDS011;13825;53.496;10.020;2023-04-07T12:18:01;4.87;;;3.23;;
26050;SDS011;13825;53.496;10.020;2023-04-07T12:20:29;6.53;;;4.57;;
26050;SDS011;13825;53.496;10.020;2023-04-07T12:22:57;14.53;;;8.90;;
26050;SDS011;13825;53.496;10.020;2023-04-07T12:25:25;6.07;;;3.80;;
26050;SDS011;13825;53.496;10.020;2023-04-07T12:27:52;7.43;;;4.93;;
26050;SDS011;13825;53.496;10.020;2023-04-07T12:30:19;8.37;;;5.07;;
26050;SDS011;13825;53.496;10.020;2023-04-07T12:32:47;6.23;;;3.37;;
26050;SDS011;13825;53.496;10.020;2023-04-07T12:35:14;10.07;;;6.03;;
26050;SDS011;13825;53.496;10.020;2023-04-07T12:37:43;4.10;;;3.27;;
26050;SDS011;13825;53.496;10.020;2023-04-07T12:40:11;22.60;;;13.73;;
26050;SDS011;13825;53.496;10.020;2023-04-07T12:42:40;14.03;;;9.83;;
26050;SDS011;13825;53.496;10.020;2023-04-07T12:45:07;5.80;;;3.90;;
26050;SDS011;13825;53.496;10.020;2023-04-07T12:47:37;5.73;;;4.33;;
26050;SDS011;13825;53.496;10.020;2023-04-07T12:50:06;7.47;;;4.60;;
26050;SDS011;13825;53.496;10.020;2023-04-07T12:52:34;5.93;;;3.80;;
26050;SDS011;13825;53.496;10.020;2023-04-07T12:55:03;4.13;;;3.50;;
26050;SDS011;13825;53.496;10.020;2023-04-07T12:57:33;5.10;;;3.57;;
26050;SDS011;13825;53.496;10.020;2023-04-07T13:00:03;5.77;;;3.97;;
26050;SDS011;13825;53.496;10.020;2023-04-07T13:02:30;6.23;;;4.40;;
26050;SDS011;13825;53.496;10.020;2023-04-07T13:05:00;5.43;;;4.07;;
26050;SDS011;13825;53.496;10.020;2023-04-07T13:07:28;4.70;;;3.73;;
26050;SDS011;13825;53.496;10.020;2023-04-07T13:09:56;4.67;;;3.60;;
26050;SDS011;13825;53.496;10.020;2023-04-07T13:12:24;3.47;;;2.80;;
26050;SDS011;13825;53.496;10.020;2023-04-07T13:14:52;4.87;;;2.83;;
26050;SDS011;13825;53.496;10.020;2023-04-07T13:17:19;4.03;;;3.23;;
26050;SDS011;13825;53.496;10.020;2023-04-07T13:19:46;3.27;;;2.93;;
26050;SDS011;13825;53.496;10.020;2023-04-07T13:22:14;3.27;;;2.70;;
26050;SDS011;13825;53.496;10.020;2023-04-07T13:24:41;4.23;;;2.90;;
26050;SDS011;13825;53.496;10.020;2023-04-07T13:27:09;4.13;;;2.70;;
26050;SDS011;13825;53.496;10.020;2023-04-07T13:29:37;4.77;;;2.83;;
26050;SDS011;13825;53.496;10.020;2023-04-07T13:32:05;3.60;;;2.60;;
26050;SDS011;13825;53.496;10.020;2023-04-07T13:34:32;2.60;;;2.00;;
26050;SDS011;13825;53.496;10.020;2023-04-07T13:37:00;3.57;;;3.00;;
26050;SDS011;13825;53.496;10.020;2023-04-07T13:39:27;3.73;;;2.93;;
26050;SDS011;13825;53.496;10.020;2023-04-07T13:58:06;3.20;;;2.23;;
26050;SDS011;13825;53.496;10.020;2023-04-07T14:04:15;2.33;;;1.97;;
26050;SDS011;13825;53.496;10.020;2023-04-07T14:07:12;2.40;;;1.80;;
26050;SDS011;13825;53.496;10.020;2023-04-07T14:12:47;2.97;;;2.27;;
26050;SDS011;13825;53.496;10.020;2023-04-07T14:15:18;3.17;;;2.37;;
26050;SDS011;13825;53.496;10.020;2023-04-07T14:17:46;4.63;;;2.30;;
26050;SDS011;13825;53.496;10.020;2023-04-07T14:20:13;2.57;;;2.20;;
26050;SDS011;13825;53.496;10.020;2023-04-07T14:22:40;3.87;;;2.40;;
26050;SDS011;13825;53.496;10.020;2023-04-07T14:25:08;3.30;;;2.40;;
26050;SDS011;13825;53.496;10.020;2023-04-07T14:27:36;2.80;;;2.50;;
26050;SDS011;13825;53.496;10.020;2023-04-07T14:30:04;2.90;;;2.20;;
26050;SDS011;13825;53.496;10.020;2023-04-07T14:32:33;5.73;;;2.80;;
26050;SDS011;13825;53.496;10.020;2023-04-07T14:35:01;3.47;;;2.43;;
26050;SDS011;13825;53.496;10.020;2023-04-07T14:37:31;5.63;;;3.77;;
26050;SDS011;13825;53.496;10.020;2023-04-07T14:40:00;4.00;;;2.63;;
26050;SDS011;13825;53.496;10.020;2023-04-07T14:42:27;3.70;;;2.97;;
26050;SDS011;13825;53.496;10.020;2023-04-07T14:44:55;3.37;;;2.97;;
26050;SDS011;13825;53.496;10.020;2023-04-07T14:47:22;4.73;;;2.60;;
26050;SDS011;13825;53.496;10.020;2023-04-07T14:49:51;3.00;;;2.57;;
26050;SDS011;13825;53.496;10.020;2023-04-07T14:52:19;4.53;;;3.10;;
26050;SDS011;13825;53.496;10.020;2023-04-07T14:54:46;4.63;;;3.40;;
26050;SDS011;13825;53.496;10.020;2023-04-07T14:57:14;6.13;;;3.47;;
26050;SDS011;13825;53.496;10.020;2023-04-07T14:59:41;8.37;;;3.30;;
26050;SDS011;13825;53.496;10.020;2023-04-07T15:02:08;4.13;;;3.10;;
26050;SDS011;13825;53.496;10.020;2023-04-07T15:19:51;3.07;;;2.47;;
26050;SDS011;13825;53.496;10.020;2023-04-07T15:22:19;4.13;;;3.20;;
26050;SDS011;13825;53.496;10.020;2023-04-07T15:27:49;3.80;;;3.13;;
26050;SDS011;13825;53.496;10.020;2023-04-07T15:30:21;5.00;;;2.97;;
26050;SDS011;13825;53.496;10.020;2023-04-07T15:39:50;4.57;;;3.13;;
26050;SDS011;13825;53.496;10.020;2023-04-07T15:43:12;4.83;;;3.10;;
26050;SDS011;13825;53.496;10.020;2023-04-07T15:46:04;5.20;;;3.03;;
26050;SDS011;13825;53.496;10.020;2023-04-07T15:49:09;6.87;;;3.63;;